createdAt,value
2019-01-18T07:07:20.592Z,7.07
2019-01-18T07:09:49.290Z,9.00
2019-01-18T07:12:17.874Z,9.37
2019-01-18T07:14:46.625Z,8.47
2019-01-18T07:17:15.287Z,8.03
2019-01-18T07:19:43.949Z,8.00
2019-01-18T07:22:12.655Z,8.73
2019-01-18T07:24:41.327Z,8.03
2019-01-18T07:27:09.976Z,7.27
2019-01-18T07:29:38.564Z,7.97
2019-01-18T07:32:07.222Z,7.03
2019-01-18T07:34:35.849Z,7.83
2019-01-18T07:37:04.680Z,7.30
2019-01-18T07:39:33.401Z,7.37
2019-01-18T07:42:02.073Z,6.80
2019-01-18T07:44:30.723Z,7.73
2019-01-18T07:46:59.337Z,7.73
2019-01-18T07:49:28.040Z,6.63
2019-01-18T07:51:56.772Z,6.57
2019-01-18T07:54:25.409Z,6.83
2019-01-18T07:56:54.069Z,6.20
2019-01-18T07:59:22.691Z,6.67
2019-01-18T08:01:51.390Z,6.60
2019-01-18T08:04:20.102Z,6.60
2019-01-18T08:06:48.826Z,7.10
2019-01-18T08:09:17.437Z,7.00
2019-01-18T08:11:46.067Z,7.93
2019-01-18T08:14:14.667Z,7.87
2019-01-18T08:16:43.657Z,8.73
2019-01-18T08:19:12.369Z,8.70
2019-01-18T08:21:41.077Z,9.57
2019-01-18T08:24:09.662Z,8.90
2019-01-18T08:26:38.485Z,9.70
2019-01-18T08:29:07.142Z,9.77
2019-01-18T08:31:35.867Z,11.27
2019-01-18T08:34:04.609Z,12.00
2019-01-18T08:36:33.220Z,9.60
2019-01-18T08:39:01.870Z,9.57
2019-01-18T08:41:30.496Z,7.40
2019-01-18T08:43:59.195Z,6.90
2019-01-18T08:46:27.859Z,6.87
2019-01-18T08:48:56.492Z,6.60
2019-01-18T08:51:25.124Z,6.63
2019-01-18T08:53:53.815Z,6.03
2019-01-18T08:56:22.573Z,5.70
2019-01-18T08:58:51.268Z,5.33
2019-01-18T09:01:19.930Z,5.67
2019-01-18T09:03:48.697Z,5.90
2019-01-18T09:06:17.438Z,6.37
2019-01-18T09:08:46.056Z,6.60
2019-01-18T09:11:14.784Z,8.77
2019-01-18T09:13:43.474Z,8.57
2019-01-18T09:16:12.188Z,9.47
2019-01-18T09:18:40.788Z,8.87
2019-01-18T09:21:09.541Z,8.63
2019-01-18T09:23:38.184Z,8.73
2019-01-18T09:26:06.829Z,8.47
2019-01-18T09:28:35.601Z,8.23
2019-01-18T09:31:04.428Z,7.87
2019-01-18T09:33:33.116Z,8.37
2019-01-18T09:36:01.826Z,7.70
2019-01-18T09:38:30.544Z,7.70
2019-01-18T09:40:59.171Z,7.87
2019-01-18T09:43:27.755Z,7.57
2019-01-18T09:45:56.461Z,7.80
2019-01-18T09:48:25.132Z,8.60
2019-01-18T09:50:53.814Z,8.20
2019-01-18T09:53:22.554Z,8.60
2019-01-18T09:55:51.186Z,8.00
2019-01-18T09:58:19.869Z,7.57
2019-01-18T10:00:48.525Z,8.00
2019-01-18T10:03:17.171Z,8.40
2019-01-18T10:05:45.784Z,7.40
2019-01-18T10:08:14.354Z,7.53
2019-01-18T10:10:43.111Z,7.80
2019-01-18T10:13:11.834Z,7.83
2019-01-18T10:15:42.197Z,8.23
2019-01-18T10:18:10.973Z,7.93
2019-01-18T10:20:39.691Z,7.23
2019-01-18T10:23:08.464Z,7.57
2019-01-18T10:25:37.141Z,7.80
2019-01-18T10:28:06.062Z,7.30
2019-01-18T10:30:34.773Z,7.50
2019-01-18T10:33:03.499Z,7.43
2019-01-18T10:35:32.262Z,8.53
2019-01-18T10:38:00.937Z,7.87
2019-01-18T10:40:29.690Z,7.97
2019-01-18T10:42:58.458Z,8.77
2019-01-18T10:45:27.743Z,8.43
2019-01-18T10:47:56.397Z,8.23
2019-01-18T10:50:30.408Z,9.03
2019-01-18T10:52:59.342Z,8.80
2019-01-18T10:55:28.077Z,9.00
2019-01-18T10:57:56.846Z,8.80
2019-01-18T11:00:28.090Z,9.30
2019-01-18T11:02:56.841Z,9.37
2019-01-18T11:05:25.886Z,10.30
2019-01-18T11:07:54.650Z,9.77
2019-01-18T11:10:23.385Z,9.47
2019-01-18T11:12:52.161Z,9.83
2019-01-18T11:15:22.982Z,9.73
2019-01-18T11:17:51.752Z,11.30
2019-01-18T11:20:23.178Z,10.73
2019-01-18T11:22:53.036Z,10.37
2019-01-18T11:25:21.819Z,11.10
2019-01-18T11:27:50.466Z,12.10
2019-01-18T11:30:19.189Z,12.20
2019-01-18T11:32:47.890Z,11.27
2019-01-18T11:35:18.412Z,12.50
2019-01-18T11:37:47.189Z,12.10
2019-01-18T11:40:18.889Z,13.10
2019-01-18T11:42:47.656Z,12.43
2019-01-18T11:45:16.776Z,13.63
2019-01-18T11:47:45.570Z,14.53
2019-01-18T11:50:26.103Z,15.50
